createdAt,value
2023-12-20T00:01:24.947Z,20.70
2023-12-20T00:03:53.218Z,17.50
2023-12-20T00:06:21.432Z,19.15
2023-12-20T00:08:49.768Z,20.95
2023-12-20T00:11:17.817Z,21.48
2023-12-20T00:13:50.113Z,19.85
2023-12-20T00:16:20.265Z,20.48
2023-12-20T00:18:48.606Z,20.17
2023-12-20T00:21:16.854Z,18.63
2023-12-20T00:23:44.840Z,17.95
2023-12-20T00:26:12.894Z,23.83
2023-12-20T00:28:40.909Z,19.25
2023-12-20T00:31:10.378Z,20.23
2023-12-20T00:33:38.913Z,21.73
2023-12-20T00:36:07.710Z,22.35
2023-12-20T00:38:35.712Z,23.30
2023-12-20T00:41:04.720Z,23.45
2023-12-20T00:43:32.759Z,25.13
2023-12-20T00:46:01.195Z,24.60
2023-12-20T00:48:31.333Z,23.90
2023-12-20T00:50:59.701Z,25.38
2023-12-20T00:53:27.770Z,25.60
2023-12-20T00:55:55.882Z,26.60
2023-12-20T00:58:24.024Z,21.50
2023-12-20T01:00:52.283Z,22.00
2023-12-20T01:03:20.363Z,23.85
2023-12-20T01:05:49.817Z,22.67
2023-12-20T01:08:17.835Z,17.37
2023-12-20T01:10:45.996Z,19.25
2023-12-20T01:13:13.103Z,19.83
2023-12-20T01:15:41.213Z,18.58
2023-12-20T01:18:09.864Z,17.63
2023-12-20T01:20:38.254Z,17.65
2023-12-20T01:23:07.741Z,15.00
2023-12-20T01:25:35.794Z,12.65
2023-12-20T01:28:04.274Z,12.60
2023-12-20T01:30:32.534Z,16.23
2023-12-20T01:33:02.276Z,18.10
2023-12-20T01:35:30.293Z,12.23
2023-12-20T01:37:58.658Z,14.57
2023-12-20T01:40:28.180Z,10.13
2023-12-20T01:43:02.632Z,10.77
2023-12-20T01:45:30.703Z,9.48
2023-12-20T01:48:00.792Z,12.85
2023-12-20T01:50:30.397Z,10.52
2023-12-20T01:53:00.777Z,13.45
2023-12-20T01:55:32.841Z,13.98
2023-12-20T01:58:01.891Z,15.55
2023-12-20T02:00:31.188Z,18.13
2023-12-20T02:03:01.741Z,11.98
2023-12-20T02:05:31.840Z,17.77
2023-12-20T02:08:00.371Z,15.45
2023-12-20T02:10:30.422Z,18.00
2023-12-20T02:12:58.561Z,21.45
2023-12-20T02:15:26.777Z,18.10
2023-12-20T02:17:55.605Z,21.60
2023-12-20T02:20:23.624Z,22.63
2023-12-20T02:22:52.961Z,21.27
2023-12-20T02:25:21.294Z,16.55
2023-12-20T02:27:50.427Z,25.60
2023-12-20T02:30:18.704Z,23.38
2023-12-20T02:32:46.781Z,24.70
2023-12-20T02:35:14.995Z,19.40
2023-12-20T02:37:43.306Z,25.88
2023-12-20T02:40:13.210Z,20.38
2023-12-20T02:42:41.264Z,22.92
2023-12-20T02:45:10.138Z,28.88
2023-12-20T02:47:38.271Z,24.90
2023-12-20T02:50:06.787Z,28.63
2023-12-20T02:52:34.954Z,30.65
2023-12-20T02:55:03.011Z,14.73
2023-12-20T02:57:33.558Z,15.25
2023-12-20T03:00:01.680Z,14.30
2023-12-20T03:02:29.773Z,14.20
2023-12-20T03:04:57.851Z,21.08
2023-12-20T03:07:25.964Z,23.90
2023-12-20T03:10:06.339Z,28.90
2023-12-20T03:12:43.480Z,25.42
2023-12-20T03:15:12.296Z,19.15
2023-12-20T03:17:40.485Z,20.88
2023-12-20T03:20:10.476Z,21.27
2023-12-20T03:22:38.550Z,22.98
2023-12-20T03:25:07.116Z,21.10
2023-12-20T03:27:35.240Z,25.30
2023-12-20T03:30:05.242Z,20.67
2023-12-20T03:32:33.393Z,18.75
2023-12-20T03:35:01.525Z,19.30
2023-12-20T03:37:30.079Z,20.63
2023-12-20T03:39:58.176Z,19.38
2023-12-20T03:42:26.348Z,16.98
2023-12-20T03:44:54.383Z,17.85
2023-12-20T03:47:23.881Z,22.98
2023-12-20T03:49:52.030Z,29.02
2023-12-20T03:52:20.296Z,24.75
2023-12-20T03:54:48.765Z,24.23
2023-12-20T03:57:16.937Z,25.00
2023-12-20T03:59:44.955Z,18.13
2023-12-20T04:02:13.030Z,15.48
2023-12-20T04:04:43.306Z,18.60
2023-12-20T04:07:11.563Z,15.80
2023-12-20T04:09:39.844Z,19.73
2023-12-20T04:12:08.724Z,16.13
2023-12-20T04:14:36.811Z,14.30
2023-12-20T04:17:05.190Z,17.63
2023-12-20T04:19:33.388Z,20.40
2023-12-20T04:22:02.960Z,25.85
2023-12-20T04:24:31.097Z,18.70
2023-12-20T04:26:59.220Z,22.23
2023-12-20T04:29:27.318Z,16.38
2023-12-20T04:31:55.408Z,15.70
2023-12-20T04:34:25.351Z,16.98
2023-12-20T04:36:53.527Z,13.87
2023-12-20T04:39:22.959Z,16.70
2023-12-20T04:41:51.338Z,15.82
2023-12-20T04:44:19.460Z,19.20
2023-12-20T04:46:47.604Z,15.85
2023-12-20T04:49:15.724Z,20.30
2023-12-20T04:51:43.962Z,19.53
2023-12-20T04:54:12.193Z,20.90
2023-12-20T04:56:41.637Z,20.75
2023-12-20T04:59:09.767Z,17.67
2023-12-20T05:01:37.996Z,23.52
2023-12-20T05:04:06.396Z,23.52
2023-12-20T05:06:34.779Z,22.40
2023-12-20T05:09:03.035Z,20.67
2023-12-20T05:11:32.552Z,21.17
2023-12-20T05:14:02.060Z,23.15
2023-12-20T05:16:30.202Z,44.95
2023-12-20T05:18:59.727Z,19.67
2023-12-20T05:21:27.766Z,21.40
2023-12-20T05:23:55.859Z,21.77
2023-12-20T05:26:24.354Z,21.40
2023-12-20T05:28:52.415Z,20.60
2023-12-20T05:31:21.901Z,19.75
2023-12-20T05:33:50.076Z,24.67
2023-12-20T05:36:18.291Z,22.52
2023-12-20T05:38:46.399Z,18.80
2023-12-20T05:41:14.562Z,19.75
2023-12-20T05:43:42.908Z,18.67
2023-12-20T05:46:12.654Z,17.60
2023-12-20T05:48:42.249Z,21.25
2023-12-20T05:51:13.301Z,18.75
2023-12-20T05:53:41.512Z,20.45
2023-12-20T05:56:09.669Z,22.13
2023-12-20T05:58:37.896Z,18.90
2023-12-20T06:01:06.772Z,17.23
2023-12-20T06:03:34.999Z,19.20
2023-12-20T06:06:15.760Z,20.83
2023-12-20T06:08:45.510Z,23.25
2023-12-20T06:11:14.741Z,19.30
2023-12-20T06:13:42.981Z,23.40
2023-12-20T06:16:11.166Z,25.63
2023-12-20T06:18:39.528Z,18.27
2023-12-20T06:21:09.671Z,21.20
2023-12-20T06:23:38.075Z,23.10
2023-12-20T06:26:06.554Z,27.10
2023-12-20T06:28:34.673Z,24.00
2023-12-20T06:31:02.873Z,24.97
2023-12-20T06:33:32.071Z,18.77
2023-12-20T06:36:00.208Z,17.35
2023-12-20T06:38:29.658Z,25.75
2023-12-20T06:40:58.760Z,23.35
2023-12-20T06:45:59.797Z,22.38
2023-12-20T06:48:28.583Z,19.40
2023-12-20T06:50:56.729Z,25.35
2023-12-20T06:53:24.847Z,21.17
2023-12-20T06:55:54.305Z,18.58
2023-12-20T06:58:22.400Z,21.45
2023-12-20T07:00:50.787Z,21.92
2023-12-20T07:03:18.957Z,17.17
2023-12-20T07:05:47.134Z,21.15
2023-12-20T07:08:16.600Z,17.73
2023-12-20T07:10:44.754Z,19.52
2023-12-20T07:13:15.166Z,23.98
2023-12-20T07:15:44.933Z,22.40
2023-12-20T07:18:13.773Z,20.45
2023-12-20T07:20:41.918Z,17.83
2023-12-20T07:23:10.068Z,16.92
2023-12-20T07:25:38.198Z,24.92
2023-12-20T07:28:07.190Z,16.20
2023-12-20T07:30:36.877Z,18.20
2023-12-20T07:33:05.431Z,25.23
2023-12-20T07:35:33.622Z,21.38
2023-12-20T07:38:01.764Z,18.23
2023-12-20T07:40:29.892Z,17.83
2023-12-20T07:42:59.353Z,21.58
2023-12-20T07:45:27.575Z,18.85
2023-12-20T07:47:57.079Z,15.50
2023-12-20T07:50:25.275Z,23.25
2023-12-20T07:52:54.307Z,19.77
2023-12-20T07:55:22.402Z,25.35
2023-12-20T07:57:50.557Z,18.35
2023-12-20T08:00:19.510Z,16.58
2023-12-20T08:02:47.694Z,19.13
2023-12-20T08:05:18.666Z,21.33
2023-12-20T08:07:47.529Z,21.02
2023-12-20T08:10:15.912Z,23.15
2023-12-20T08:12:44.115Z,18.85
2023-12-20T08:15:12.597Z,18.35
2023-12-20T08:17:40.724Z,19.58
2023-12-20T08:20:10.222Z,19.25
2023-12-20T08:22:39.897Z,22.77
2023-12-20T08:25:08.842Z,19.90
2023-12-20T08:27:40.657Z,16.90
2023-12-20T08:30:11.563Z,19.03
2023-12-20T08:32:39.754Z,24.85
2023-12-20T08:35:08.526Z,20.35
2023-12-20T08:37:37.022Z,15.95
2023-12-20T08:40:08.172Z,18.95
2023-12-20T08:42:36.411Z,14.68
2023-12-20T08:45:07.232Z,18.52
2023-12-20T08:47:35.400Z,17.65
2023-12-20T08:50:04.827Z,24.77
2023-12-20T08:52:32.995Z,18.07
2023-12-20T08:55:01.480Z,19.17
2023-12-20T08:57:32.890Z,16.60
2023-12-20T09:00:00.952Z,19.40
2023-12-20T09:02:30.059Z,17.60
2023-12-20T09:04:58.764Z,24.17
2023-12-20T09:07:28.486Z,23.00
2023-12-20T09:09:57.052Z,16.80
2023-12-20T09:12:25.241Z,22.40
2023-12-20T09:14:55.218Z,18.45
2023-12-20T09:17:24.120Z,12.73
2023-12-20T09:19:53.712Z,20.95
2023-12-20T09:22:22.034Z,20.13
2023-12-20T09:24:50.305Z,16.13
2023-12-20T09:27:18.421Z,20.85
2023-12-20T09:29:46.512Z,18.63
2023-12-20T09:32:15.948Z,22.20
2023-12-20T09:34:44.125Z,18.55
2023-12-20T09:37:11.338Z,19.77
2023-12-20T09:39:39.694Z,27.50
2023-12-20T09:42:08.990Z,17.83
2023-12-20T09:44:37.442Z,18.58
2023-12-20T09:47:06.659Z,17.13
2023-12-20T09:49:37.552Z,18.48
2023-12-20T09:52:09.831Z,18.33
2023-12-20T09:54:38.047Z,19.80
2023-12-20T09:57:06.944Z,14.57
2023-12-20T09:59:35.415Z,16.38
2023-12-20T10:02:06.046Z,19.60
2023-12-20T10:04:37.043Z,14.88
2023-12-20T10:07:07.383Z,19.80
2023-12-20T10:09:36.705Z,19.45
2023-12-20T10:12:06.541Z,14.40
2023-12-20T10:14:35.094Z,18.10
2023-12-20T10:17:07.245Z,16.38
2023-12-20T10:19:36.771Z,18.77
2023-12-20T10:22:07.404Z,13.93
2023-12-20T10:24:35.564Z,15.50
2023-12-20T10:27:05.942Z,13.32
2023-12-20T10:29:37.841Z,17.90
2023-12-20T10:32:26.751Z,13.25
2023-12-20T10:34:57.702Z,19.88
2023-12-20T10:37:26.135Z,11.80
2023-12-20T10:39:57.540Z,19.05
2023-12-20T10:42:28.600Z,16.15
2023-12-20T10:44:57.029Z,12.07
2023-12-20T10:47:27.032Z,15.00
2023-12-20T10:49:57.956Z,20.77
2023-12-20T10:52:26.816Z,14.50
2023-12-20T10:54:55.211Z,15.50
2023-12-20T10:57:24.408Z,13.52
2023-12-20T10:59:55.844Z,19.90
2023-12-20T11:02:23.518Z,12.85
2023-12-20T11:04:59.041Z,14.93
2023-12-20T11:07:34.507Z,15.95
2023-12-20T11:10:19.022Z,13.63
2023-12-20T11:12:54.555Z,15.40
2023-12-20T11:15:23.261Z,20.35
2023-12-20T11:17:57.629Z,14.38
2023-12-20T11:20:38.060Z,14.00
2023-12-20T11:23:06.361Z,13.68
2023-12-20T11:25:53.807Z,19.00
2023-12-20T11:28:24.127Z,21.10
2023-12-20T11:30:54.050Z,18.70
2023-12-20T11:33:28.854Z,18.80
2023-12-20T11:36:01.267Z,17.05
2023-12-20T11:38:29.543Z,17.55
2023-12-20T11:40:58.684Z,17.20
2023-12-20T11:43:33.903Z,19.20
2023-12-20T11:46:07.253Z,15.07
2023-12-20T11:48:37.591Z,18.58
2023-12-20T11:51:11.449Z,23.10
2023-12-20T11:53:39.788Z,15.73
2023-12-20T11:56:09.130Z,16.83
2023-12-20T11:58:37.598Z,19.33
2023-12-20T12:01:08.617Z,15.80
2023-12-20T12:03:37.150Z,14.23
2023-12-20T12:06:07.339Z,12.27
2023-12-20T12:08:35.619Z,13.27
2023-12-20T12:11:03.939Z,14.20
2023-12-20T12:13:32.356Z,19.77
2023-12-20T12:16:01.591Z,13.70
2023-12-20T12:18:30.092Z,19.27
2023-12-20T12:21:08.187Z,14.40
2023-12-20T12:23:39.858Z,15.85
2023-12-20T12:26:10.193Z,20.90
2023-12-20T12:28:38.366Z,15.05
2023-12-20T12:31:06.607Z,11.97
2023-12-20T12:33:35.046Z,14.60
2023-12-20T12:36:04.965Z,17.07
2023-12-20T12:38:33.094Z,15.73
2023-12-20T12:41:02.805Z,13.52
2023-12-20T12:43:31.477Z,20.50
2023-12-20T12:46:00.418Z,12.57
2023-12-20T12:48:29.218Z,16.88
2023-12-20T12:51:00.757Z,16.52
2023-12-20T12:53:28.871Z,14.05
2023-12-20T12:55:57.141Z,18.30
2023-12-20T12:58:27.320Z,17.33
2023-12-20T13:00:56.257Z,15.60
2023-12-20T13:03:25.314Z,16.42
2023-12-20T13:05:53.589Z,19.05
2023-12-20T13:08:21.690Z,18.05
2023-12-20T13:10:50.516Z,18.47
2023-12-20T13:13:18.951Z,17.60
2023-12-20T13:15:52.678Z,16.58
2023-12-20T13:18:21.030Z,14.07
2023-12-20T13:20:49.489Z,16.70
2023-12-20T13:23:19.259Z,15.25
2023-12-20T13:25:47.805Z,18.52
2023-12-20T13:28:16.201Z,14.40
2023-12-20T13:30:44.463Z,17.60
2023-12-20T13:33:13.984Z,20.33
2023-12-20T13:35:42.126Z,19.80
2023-12-20T13:38:10.252Z,16.50
2023-12-20T13:40:38.735Z,17.90
2023-12-20T13:43:07.150Z,18.92
2023-12-20T13:45:35.366Z,17.77
2023-12-20T13:48:03.735Z,14.82
2023-12-20T13:50:33.350Z,15.70
2023-12-20T13:53:02.021Z,16.47
2023-12-20T13:55:30.418Z,18.55
2023-12-20T13:57:58.881Z,16.15
2023-12-20T14:00:27.296Z,16.40
2023-12-20T14:02:55.776Z,16.33
2023-12-20T14:05:28.054Z,17.27
2023-12-20T14:07:59.652Z,17.50
2023-12-20T14:10:28.396Z,20.60
2023-12-20T14:12:57.204Z,16.77
2023-12-20T14:15:26.563Z,13.43
2023-12-20T14:17:55.877Z,17.58
2023-12-20T14:20:24.428Z,21.13
2023-12-20T14:22:52.622Z,16.17
2023-12-20T14:25:24.690Z,14.93
2023-12-20T14:27:53.020Z,9.23
2023-12-20T14:30:21.415Z,15.38
2023-12-20T14:32:49.892Z,19.05
2023-12-20T14:35:18.592Z,13.30
2023-12-20T14:37:46.899Z,13.52
2023-12-20T14:40:17.876Z,16.73
2023-12-20T14:42:48.122Z,14.60
2023-12-20T14:45:17.689Z,23.88
2023-12-20T14:47:46.474Z,22.70
2023-12-20T14:50:20.278Z,17.30
2023-12-20T14:52:48.936Z,16.95
2023-12-20T14:55:18.191Z,18.35
2023-12-20T14:57:48.107Z,15.43
2023-12-20T15:00:20.824Z,20.98
2023-12-20T15:02:49.040Z,16.75
2023-12-20T15:05:18.583Z,16.25
2023-12-20T15:07:48.194Z,14.43
2023-12-20T15:10:18.032Z,17.60
2023-12-20T15:12:47.769Z,15.00
2023-12-20T15:15:16.368Z,13.10
2023-12-20T15:17:44.750Z,17.25
2023-12-20T15:20:13.708Z,15.23
2023-12-20T15:22:42.502Z,14.45
2023-12-20T15:25:11.181Z,18.53
2023-12-20T15:27:39.519Z,17.10
2023-12-20T15:30:11.227Z,16.23
2023-12-20T15:32:41.406Z,17.47
2023-12-20T15:35:10.430Z,19.38
2023-12-20T15:37:40.461Z,22.38
2023-12-20T15:40:11.062Z,20.05
2023-12-20T15:42:39.790Z,18.58
2023-12-20T15:45:10.428Z,23.52
2023-12-20T15:47:38.536Z,17.48
2023-12-20T15:50:08.950Z,17.73
2023-12-20T15:52:38.956Z,20.52
2023-12-20T15:55:08.706Z,22.42
2023-12-20T15:57:45.442Z,16.10
2023-12-20T16:00:22.144Z,18.33
2023-12-20T16:02:50.827Z,17.77
2023-12-20T16:05:19.286Z,25.73
2023-12-20T16:07:48.399Z,18.20
2023-12-20T16:10:16.817Z,20.40
2023-12-20T16:12:44.902Z,17.60
2023-12-20T16:15:12.977Z,14.90
2023-12-20T16:17:42.692Z,19.35
2023-12-20T16:20:11.502Z,17.20
2023-12-20T16:22:39.800Z,24.48
2023-12-20T16:25:09.475Z,20.83
2023-12-20T16:27:37.517Z,16.60
2023-12-20T16:30:06.660Z,16.80
2023-12-20T16:32:35.184Z,18.17
2023-12-20T16:35:06.133Z,17.63
2023-12-20T16:37:38.582Z,19.63
2023-12-20T16:40:07.505Z,14.65
2023-12-20T16:42:35.641Z,18.92
2023-12-20T16:45:04.871Z,20.13
2023-12-20T16:47:32.982Z,19.17
2023-12-20T16:50:03.343Z,21.27
2023-12-20T16:52:33.994Z,19.90
2023-12-20T16:55:02.438Z,20.43
2023-12-20T16:57:30.642Z,20.37
2023-12-20T16:59:58.793Z,24.80
2023-12-20T17:02:26.956Z,21.48
2023-12-20T17:04:55.198Z,14.57
2023-12-20T17:07:23.365Z,23.65
2023-12-20T17:09:53.609Z,18.50
2023-12-20T17:12:21.698Z,15.35
2023-12-20T17:14:49.762Z,17.50
2023-12-20T17:17:17.862Z,14.93
2023-12-20T17:19:46.076Z,18.98
2023-12-20T17:22:14.320Z,19.20
2023-12-20T17:24:42.451Z,17.55
2023-12-20T17:27:12.423Z,19.58
2023-12-20T17:29:40.586Z,20.27
2023-12-20T17:32:08.716Z,19.05
2023-12-20T17:34:37.870Z,18.20
2023-12-20T17:37:06.435Z,20.43
2023-12-20T17:39:34.538Z,16.67
2023-12-20T17:42:02.884Z,19.17
2023-12-20T17:44:32.323Z,20.00
2023-12-20T17:47:00.924Z,22.65
2023-12-20T17:49:30.114Z,19.38
2023-12-20T17:51:58.382Z,19.60
2023-12-20T17:54:26.921Z,19.05
2023-12-20T17:56:55.476Z,23.58
2023-12-20T17:59:23.644Z,17.70
2023-12-20T18:01:53.131Z,23.43
2023-12-20T18:04:21.861Z,22.70
2023-12-20T18:06:51.121Z,19.75
2023-12-20T18:09:19.331Z,22.38
2023-12-20T18:11:47.651Z,21.20
2023-12-20T18:14:15.745Z,29.17
2023-12-20T18:16:44.019Z,24.60
2023-12-20T18:19:13.835Z,18.08
2023-12-20T18:21:41.957Z,20.70
2023-12-20T18:24:11.434Z,21.67
2023-12-20T18:26:40.404Z,18.70
2023-12-20T18:29:08.835Z,18.98
2023-12-20T18:31:36.992Z,16.25
2023-12-20T18:34:07.388Z,17.30
2023-12-20T18:36:37.622Z,23.10
2023-12-20T18:39:06.340Z,21.02
2023-12-20T18:41:34.500Z,19.37
2023-12-20T18:44:02.731Z,20.27
2023-12-20T18:46:30.803Z,18.10
2023-12-20T18:48:59.189Z,17.48
2023-12-20T18:51:27.434Z,17.80
2023-12-20T18:53:57.044Z,18.83
2023-12-20T18:56:25.132Z,21.75
2023-12-20T18:58:53.190Z,15.73
2023-12-20T19:01:21.572Z,16.10
2023-12-20T19:03:50.339Z,18.30
2023-12-20T19:06:18.581Z,19.13
2023-12-20T19:08:50.940Z,16.35
2023-12-20T19:11:20.661Z,21.40
2023-12-20T19:13:48.764Z,16.05
2023-12-20T19:16:17.052Z,18.60
2023-12-20T19:18:45.245Z,18.00
2023-12-20T19:21:13.368Z,15.02
2023-12-20T19:23:44.150Z,18.87
2023-12-20T19:26:13.395Z,20.67
2023-12-20T19:28:45.217Z,21.33
2023-12-20T19:31:13.859Z,20.38
2023-12-20T19:33:42.682Z,21.05
2023-12-20T19:36:15.105Z,17.17
2023-12-20T19:38:44.369Z,18.73
2023-12-20T19:41:12.622Z,17.75
2023-12-20T19:43:42.180Z,22.97
2023-12-20T19:46:12.319Z,17.60
2023-12-20T19:48:40.511Z,18.02
2023-12-20T19:51:09.113Z,12.00
2023-12-20T19:53:37.542Z,15.98
2023-12-20T19:56:06.189Z,21.98
2023-12-20T19:58:34.441Z,15.18
2023-12-20T20:01:04.165Z,16.65
2023-12-20T20:03:32.322Z,16.40
2023-12-20T20:06:00.543Z,19.65
2023-12-20T20:08:28.759Z,19.65
2023-12-20T20:10:56.827Z,15.70
2023-12-20T20:13:24.939Z,15.60
2023-12-20T20:15:53.084Z,12.50
2023-12-20T20:18:22.576Z,14.30
2023-12-20T20:20:50.773Z,16.58
2023-12-20T20:23:18.829Z,17.08
2023-12-20T20:25:47.962Z,14.18
2023-12-20T20:28:17.429Z,14.20
2023-12-20T20:30:45.589Z,15.93
2023-12-20T20:33:13.860Z,15.48
2023-12-20T20:35:43.539Z,14.75
2023-12-20T20:38:11.599Z,13.18
2023-12-20T20:40:39.818Z,14.52
2023-12-20T20:43:08.124Z,15.15
2023-12-20T20:45:36.200Z,10.93
2023-12-20T20:48:15.995Z,12.73
2023-12-20T20:50:55.569Z,12.47
2023-12-20T20:53:24.484Z,10.23
2023-12-20T20:55:52.540Z,12.57
2023-12-20T20:58:20.768Z,9.13
2023-12-20T21:00:49.181Z,12.00
2023-12-20T21:03:17.381Z,9.95
2023-12-20T21:05:45.543Z,6.32
2023-12-20T21:08:15.999Z,10.25
2023-12-20T21:10:45.196Z,12.27
2023-12-20T21:13:13.653Z,10.18
2023-12-20T21:15:41.770Z,12.45
2023-12-20T21:18:11.417Z,19.23
2023-12-20T21:20:40.354Z,14.95
2023-12-20T21:23:10.236Z,12.65
2023-12-20T21:25:39.953Z,11.88
2023-12-20T21:28:08.372Z,10.00
2023-12-20T21:30:38.581Z,10.80
2023-12-20T21:33:07.187Z,9.55
2023-12-20T21:35:36.015Z,8.97
2023-12-20T21:38:04.892Z,11.10
2023-12-20T21:40:33.215Z,9.27
2023-12-20T21:43:03.410Z,12.93
2023-12-20T21:45:31.643Z,14.27
2023-12-20T21:47:59.797Z,7.10
2023-12-20T21:50:28.090Z,8.95
2023-12-20T21:52:56.240Z,9.55
2023-12-20T21:55:24.449Z,8.82
2023-12-20T21:57:52.573Z,9.93
2023-12-20T22:00:22.552Z,7.82
2023-12-20T22:02:50.633Z,8.52
2023-12-20T22:05:19.016Z,6.83
2023-12-20T22:07:47.470Z,6.32
2023-12-20T22:10:16.007Z,7.93
2023-12-20T22:12:44.195Z,8.75
2023-12-20T22:15:14.067Z,6.85
2023-12-20T22:17:43.769Z,6.67
2023-12-20T22:20:13.193Z,6.95
2023-12-20T22:22:41.858Z,6.68
2023-12-20T22:25:10.405Z,9.93
2023-12-20T22:27:38.662Z,6.78
2023-12-20T22:30:09.817Z,8.50
2023-12-20T22:32:39.195Z,7.50
2023-12-20T22:35:09.573Z,8.57
2023-12-20T22:37:37.986Z,9.20
2023-12-20T22:40:07.235Z,8.48
2023-12-20T22:42:35.376Z,11.20
2023-12-20T22:45:03.492Z,7.32
2023-12-20T22:47:31.622Z,8.70
2023-12-20T22:49:59.870Z,9.20
2023-12-20T22:52:29.552Z,10.25
2023-12-20T22:54:57.940Z,9.52
2023-12-20T22:57:26.546Z,9.88
2023-12-20T22:59:54.870Z,10.23
2023-12-20T23:02:22.935Z,7.13
2023-12-20T23:04:51.171Z,11.57
2023-12-20T23:07:19.451Z,8.13
2023-12-20T23:09:48.959Z,9.07
2023-12-20T23:12:17.042Z,10.30
2023-12-20T23:14:45.203Z,10.80
2023-12-20T23:17:13.314Z,10.07
2023-12-20T23:19:42.243Z,9.07
2023-12-20T23:22:10.537Z,8.80
2023-12-20T23:24:38.649Z,12.98
2023-12-20T23:27:08.344Z,8.57
2023-12-20T23:29:36.457Z,7.57
2023-12-20T23:32:04.846Z,9.18
2023-12-20T23:34:32.959Z,11.70
2023-12-20T23:37:01.331Z,9.98
2023-12-20T23:39:29.474Z,10.90
2023-12-20T23:41:57.651Z,8.30
2023-12-20T23:44:27.157Z,7.65
2023-12-20T23:46:55.252Z,7.35
2023-12-20T23:49:24.522Z,8.10
2023-12-20T23:51:53.285Z,8.20
2023-12-20T23:54:21.404Z,9.50
2023-12-20T23:56:49.707Z,7.80
2023-12-20T23:59:19.747Z,6.65
